createdAt,value
2019-01-08T00:00:32.566Z,13.33
2019-01-08T00:03:00.729Z,12.17
2019-01-08T00:05:28.858Z,13.00
2019-01-08T00:07:56.994Z,13.13
2019-01-08T00:10:25.261Z,13.03
2019-01-08T00:12:53.358Z,13.63
2019-01-08T00:15:21.446Z,12.63
2019-01-08T00:17:49.686Z,12.83
2019-01-08T00:20:17.811Z,13.17
2019-01-08T00:22:46.012Z,13.13
2019-01-08T00:25:14.182Z,14.37
2019-01-08T00:27:42.330Z,14.83
2019-01-08T00:30:10.538Z,15.60
2019-01-08T00:32:38.873Z,13.27
2019-01-08T00:35:07.021Z,15.10
2019-01-08T00:37:35.266Z,14.00
2019-01-08T00:40:04.104Z,14.27
2019-01-08T00:42:32.249Z,14.03
2019-01-08T00:45:00.388Z,16.23
2019-01-08T00:47:28.829Z,18.37
2019-01-08T00:49:56.997Z,13.93
2019-01-08T00:52:25.139Z,13.70
2019-01-08T00:54:53.535Z,14.87
2019-01-08T00:57:21.725Z,14.17
2019-01-08T00:59:49.874Z,15.37
2019-01-08T01:02:18.046Z,14.47
2019-01-08T01:04:46.186Z,14.50
2019-01-08T01:07:14.322Z,16.07
2019-01-08T01:09:42.544Z,15.03
2019-01-08T01:12:10.683Z,14.17
2019-01-08T01:14:38.832Z,13.57
2019-01-08T01:17:07.018Z,13.70
2019-01-08T01:19:35.158Z,13.87
2019-01-08T01:22:03.313Z,13.20
2019-01-08T01:24:31.607Z,15.40
2019-01-08T01:26:59.765Z,13.17
2019-01-08T01:29:27.919Z,12.43
2019-01-08T01:31:56.137Z,12.77
2019-01-08T01:34:24.280Z,13.93
2019-01-08T01:36:52.892Z,13.23
2019-01-08T01:39:21.087Z,11.77
2019-01-08T01:41:49.246Z,12.40
2019-01-08T01:44:17.409Z,12.43
2019-01-08T01:46:45.626Z,10.27
2019-01-08T01:49:13.765Z,10.23
2019-01-08T01:51:41.929Z,10.27
2019-01-08T01:54:10.232Z,10.33
2019-01-08T01:56:38.407Z,11.67
2019-01-08T01:59:08.617Z,10.70
2019-01-08T02:01:36.474Z,10.33
2019-01-08T02:04:04.681Z,11.00
2019-01-08T02:06:32.818Z,10.00
2019-01-08T02:09:01.178Z,10.40
2019-01-08T02:11:29.321Z,9.63
2019-01-08T02:13:57.406Z,9.93
2019-01-08T02:16:25.797Z,9.47
2019-01-08T02:18:53.927Z,10.00
2019-01-08T02:21:22.064Z,9.17
2019-01-08T02:23:50.239Z,11.10
2019-01-08T02:26:18.386Z,9.70
2019-01-08T02:28:46.528Z,8.60
2019-01-08T02:31:14.810Z,8.80
2019-01-08T02:33:42.993Z,8.20
2019-01-08T02:36:11.394Z,8.00
2019-01-08T02:38:39.568Z,8.20
2019-01-08T02:41:07.891Z,7.73
2019-01-08T02:43:36.041Z,7.47
2019-01-08T02:46:04.391Z,7.33
2019-01-08T02:48:32.654Z,6.73
2019-01-08T02:51:00.807Z,7.00
2019-01-08T02:53:29.009Z,6.50
2019-01-08T02:55:57.135Z,8.40
2019-01-08T02:58:25.273Z,6.10
2019-01-08T03:00:53.430Z,5.70
2019-01-08T03:03:21.609Z,6.17
2019-01-08T03:05:49.741Z,5.40
2019-01-08T03:08:18.077Z,5.67
2019-01-08T03:10:46.215Z,5.20
2019-01-08T03:13:14.363Z,5.73
2019-01-08T03:15:42.797Z,6.03
2019-01-08T03:18:10.954Z,5.47
2019-01-08T03:20:39.090Z,5.20
2019-01-08T03:23:07.395Z,4.83
2019-01-08T03:25:35.554Z,4.80
2019-01-08T03:28:03.683Z,5.23
2019-01-08T03:30:32.173Z,5.67
2019-01-08T03:33:00.298Z,4.97
2019-01-08T03:35:28.549Z,4.83
2019-01-08T03:37:56.730Z,5.20
2019-01-08T03:40:24.890Z,5.17
2019-01-08T03:42:53.039Z,5.00
2019-01-08T03:45:21.229Z,5.60
2019-01-08T03:47:49.361Z,5.30
2019-01-08T03:50:17.499Z,5.27
2019-01-08T03:52:45.662Z,4.60
2019-01-08T03:55:13.799Z,5.30
2019-01-08T03:57:41.935Z,5.73
2019-01-08T04:00:10.881Z,4.63
2019-01-08T04:02:39.017Z,5.03
2019-01-08T04:05:07.166Z,5.10
2019-01-08T04:07:35.514Z,4.37
2019-01-08T04:10:04.645Z,4.97
2019-01-08T04:12:32.777Z,4.47
2019-01-08T04:15:00.978Z,4.70
2019-01-08T04:17:29.149Z,4.50
2019-01-08T04:19:57.294Z,4.83
2019-01-08T04:22:25.486Z,5.27
2019-01-08T04:24:53.639Z,4.50
2019-01-08T04:27:21.810Z,4.10
2019-01-08T04:29:50.663Z,4.10
2019-01-08T04:32:19.099Z,5.10
2019-01-08T04:34:47.254Z,4.70
2019-01-08T04:37:15.750Z,4.83
2019-01-08T04:39:43.990Z,4.10
2019-01-08T04:42:12.130Z,4.10
2019-01-08T04:44:40.317Z,4.33
2019-01-08T04:47:08.461Z,4.00
2019-01-08T04:49:36.581Z,3.97
2019-01-08T04:52:04.736Z,4.27
2019-01-08T04:54:32.883Z,4.73
2019-01-08T04:57:01.021Z,4.97
2019-01-08T04:59:29.198Z,3.90
2019-01-08T05:01:57.330Z,3.90
2019-01-08T05:04:25.473Z,4.20
2019-01-08T05:06:53.952Z,4.17
2019-01-08T05:09:22.091Z,4.20
2019-01-08T05:11:50.217Z,3.90
2019-01-08T05:14:18.413Z,3.97
2019-01-08T05:16:46.566Z,4.33
2019-01-08T05:19:14.717Z,4.03
2019-01-08T05:21:43.018Z,3.57
2019-01-08T05:24:11.161Z,3.80
2019-01-08T05:26:39.294Z,3.37
2019-01-08T05:29:07.589Z,3.80
2019-01-08T05:31:35.730Z,3.80
2019-01-08T05:34:03.894Z,3.23
2019-01-08T05:36:32.318Z,3.23
2019-01-08T05:39:00.454Z,3.40
2019-01-08T05:41:28.597Z,3.70
2019-01-08T05:43:56.770Z,3.07
2019-01-08T05:46:25.010Z,3.10
2019-01-08T05:48:53.187Z,3.50
2019-01-08T05:51:21.363Z,3.20
2019-01-08T05:53:49.497Z,3.50
2019-01-08T05:56:17.635Z,3.87
2019-01-08T05:58:45.794Z,2.90
2019-01-08T06:01:13.940Z,3.40
2019-01-08T06:03:42.074Z,3.50
2019-01-08T06:06:10.362Z,3.00
2019-01-08T06:08:38.509Z,2.70
2019-01-08T06:11:06.657Z,2.77
2019-01-08T06:13:35.136Z,2.90
2019-01-08T06:18:38.973Z,2.83
2019-01-08T06:21:07.094Z,3.00
2019-01-08T06:23:35.226Z,2.90
2019-01-08T06:26:03.527Z,2.70
2019-01-08T06:28:31.745Z,2.50
2019-01-08T06:30:59.889Z,2.27
2019-01-08T06:33:28.063Z,2.33
2019-01-08T06:35:56.174Z,2.17
2019-01-08T06:38:24.294Z,3.47
2019-01-08T06:40:57.565Z,2.50
2019-01-08T06:43:41.952Z,2.57
2019-01-08T06:46:10.249Z,2.50
2019-01-08T06:48:38.354Z,2.20
2019-01-08T06:51:06.471Z,2.60
2019-01-08T06:53:34.633Z,2.20
2019-01-08T06:56:02.766Z,2.80
2019-01-08T06:58:30.890Z,2.57
2019-01-08T07:00:59.033Z,2.33
2019-01-08T07:03:27.150Z,2.17
2019-01-08T07:05:55.266Z,2.43
2019-01-08T07:08:23.520Z,2.17
2019-01-08T07:10:51.655Z,2.17
2019-01-08T07:13:39.157Z,2.93
2019-01-08T07:16:07.297Z,2.30
2019-01-08T07:18:54.821Z,2.00
2019-01-08T07:21:23.209Z,1.77
2019-01-08T07:23:51.350Z,1.90
2019-01-08T07:26:19.556Z,2.17
2019-01-08T07:28:47.691Z,2.10
2019-01-08T07:31:15.849Z,1.93
2019-01-08T07:33:44.025Z,2.20
2019-01-08T07:36:12.162Z,1.97
2019-01-08T07:38:59.781Z,2.00
2019-01-08T07:41:27.965Z,1.70
2019-01-08T07:43:56.231Z,1.70
2019-01-08T07:46:24.362Z,1.80
2019-01-08T07:48:52.571Z,2.00
2019-01-08T07:51:20.715Z,1.80
2019-01-08T07:53:49.029Z,1.80
2019-01-08T07:56:36.509Z,1.73
2019-01-08T07:59:04.929Z,1.60
2019-01-08T08:01:33.042Z,1.80
2019-01-08T08:04:01.146Z,1.90
2019-01-08T08:06:29.334Z,2.00
2019-01-08T08:08:57.508Z,1.97
2019-01-08T08:11:25.906Z,2.00
2019-01-08T08:13:54.053Z,2.30
2019-01-08T08:16:22.183Z,2.03
2019-01-08T08:18:50.342Z,2.10
2019-01-08T08:21:18.559Z,2.20
2019-01-08T08:23:46.690Z,2.30
2019-01-08T08:26:14.842Z,2.03
2019-01-08T08:28:43.562Z,2.43
2019-01-08T08:31:11.712Z,2.80
2019-01-08T08:33:39.844Z,3.93
2019-01-08T08:36:08.047Z,2.27
2019-01-08T08:38:36.185Z,2.40
2019-01-08T08:41:23.713Z,2.50
2019-01-08T08:43:51.858Z,2.70
2019-01-08T08:46:20.014Z,2.20
2019-01-08T08:48:48.229Z,2.70
2019-01-08T08:51:16.454Z,2.30
2019-01-08T08:53:52.061Z,2.00
2019-01-08T08:56:34.082Z,3.00
2019-01-08T08:59:02.314Z,2.40
2019-01-08T09:01:30.464Z,2.80
2019-01-08T09:03:58.668Z,2.40
2019-01-08T09:06:26.798Z,2.50
2019-01-08T09:09:14.317Z,2.80
2019-01-08T09:11:42.443Z,2.50
2019-01-08T09:14:10.720Z,2.93
2019-01-08T09:16:39.108Z,2.60
2019-01-08T09:19:26.586Z,2.53
2019-01-08T09:21:55.172Z,3.33
2019-01-08T09:24:23.298Z,3.00
2019-01-08T09:26:51.457Z,2.80
2019-01-08T09:29:19.653Z,3.17
2019-01-08T09:32:07.158Z,2.70
2019-01-08T09:34:35.602Z,3.20
2019-01-08T09:37:03.807Z,2.90
2019-01-08T09:39:31.966Z,2.80
2019-01-08T09:42:00.445Z,2.83
2019-01-08T09:44:28.596Z,2.40
2019-01-08T09:46:56.737Z,2.80
2019-01-08T09:49:26.098Z,3.00
2019-01-08T09:51:54.337Z,2.77
2019-01-08T09:54:22.485Z,3.20
2019-01-08T09:57:10.001Z,2.93
2019-01-08T09:59:57.490Z,4.20
2019-01-08T10:02:25.882Z,3.27
2019-01-08T10:04:54.023Z,2.93
2019-01-08T10:07:41.610Z,2.70
2019-01-08T10:10:09.827Z,4.10
2019-01-08T10:12:38.023Z,2.40
2019-01-08T10:15:25.725Z,3.50
2019-01-08T10:21:06.454Z,2.90
2019-01-08T10:23:53.954Z,2.80
2019-01-08T10:26:22.214Z,3.47
2019-01-08T10:28:50.326Z,2.57
2019-01-08T10:31:18.509Z,2.50
2019-01-08T10:33:46.866Z,3.47
2019-01-08T10:36:15.018Z,2.83
2019-01-08T10:38:43.155Z,2.90
2019-01-08T10:41:30.800Z,2.80
2019-01-08T10:43:59.006Z,2.57
2019-01-08T10:46:27.134Z,2.77
2019-01-08T10:49:14.914Z,2.70
2019-01-08T10:54:55.417Z,3.27
2019-01-08T10:57:23.557Z,2.60
2019-01-08T10:59:51.682Z,3.80
2019-01-08T11:02:39.210Z,2.70
2019-01-08T11:05:07.350Z,3.07
2019-01-08T11:07:35.510Z,2.60
2019-01-08T11:10:04.764Z,2.60
2019-01-08T11:12:52.230Z,2.33
2019-01-08T11:15:20.650Z,3.13
2019-01-08T11:17:48.787Z,2.30
2019-01-08T11:20:16.917Z,2.43
2019-01-08T11:22:45.150Z,2.60
2019-01-08T11:25:13.282Z,3.20
2019-01-08T11:27:41.437Z,2.30
2019-01-08T11:30:09.926Z,2.77
2019-01-08T11:32:38.079Z,3.23
2019-01-08T11:35:06.214Z,3.77
2019-01-08T11:37:34.606Z,3.70
2019-01-08T11:40:02.902Z,3.13
2019-01-08T11:42:31.067Z,3.83
2019-01-08T11:44:59.413Z,3.17
2019-01-08T11:47:27.606Z,3.20
2019-01-08T11:49:55.761Z,3.20
2019-01-08T11:52:24.146Z,3.30
2019-01-08T11:55:11.590Z,3.53
2019-01-08T11:57:39.978Z,3.97
2019-01-08T12:00:09.483Z,3.63
2019-01-08T12:02:37.690Z,3.63
2019-01-08T12:05:05.954Z,3.77
2019-01-08T12:07:34.072Z,3.47
2019-01-08T12:10:02.185Z,3.63
2019-01-08T12:12:30.349Z,3.00
2019-01-08T12:14:58.455Z,3.40
2019-01-08T12:17:26.561Z,4.67
2019-01-08T12:19:54.922Z,3.50
2019-01-08T12:22:42.367Z,4.17
2019-01-08T12:25:10.585Z,4.27
2019-01-08T12:27:38.693Z,4.07
2019-01-08T12:30:07.858Z,4.80
2019-01-08T12:32:36.006Z,4.33
2019-01-08T12:35:04.297Z,3.90
2019-01-08T12:37:32.397Z,5.43
2019-01-08T12:40:00.858Z,5.57
2019-01-08T12:42:28.966Z,4.03
2019-01-08T12:45:16.432Z,5.87
2019-01-08T12:47:44.521Z,4.90
2019-01-08T12:50:12.632Z,4.90
2019-01-08T12:53:00.386Z,4.03
2019-01-08T12:55:28.583Z,4.37
2019-01-08T12:57:56.690Z,3.20
2019-01-08T13:00:25.130Z,4.23
2019-01-08T13:02:53.242Z,3.67
2019-01-08T13:05:21.362Z,4.23
2019-01-08T13:07:49.620Z,3.57
2019-01-08T13:10:17.714Z,5.07
2019-01-08T13:12:45.850Z,3.93
2019-01-08T13:15:13.973Z,4.70
2019-01-08T13:17:42.178Z,3.90
2019-01-08T13:20:10.288Z,4.23
2019-01-08T13:22:38.510Z,8.63
2019-01-08T13:25:07.078Z,7.10
2019-01-08T13:27:35.210Z,2.83
2019-01-08T13:30:22.768Z,4.97
2019-01-08T13:32:50.897Z,3.77
2019-01-08T13:35:19.006Z,4.50
2019-01-08T13:38:06.531Z,3.83
2019-01-08T13:40:34.766Z,4.40
2019-01-08T13:43:02.874Z,3.67
2019-01-08T13:45:31.286Z,5.67
2019-01-08T13:47:59.412Z,4.10
2019-01-08T13:50:46.915Z,4.90
2019-01-08T13:53:15.037Z,2.83
2019-01-08T13:55:43.163Z,6.00
2019-01-08T13:58:11.469Z,3.47
2019-01-08T14:00:39.647Z,5.63
2019-01-08T14:03:07.750Z,3.23
2019-01-08T14:05:36.058Z,5.47
2019-01-08T14:08:04.162Z,5.83
2019-01-08T14:10:32.254Z,3.53
2019-01-08T14:13:19.758Z,3.97
2019-01-08T14:16:12.778Z,3.47
2019-01-08T14:18:41.374Z,5.53
2019-01-08T14:21:09.485Z,5.33
2019-01-08T14:23:37.591Z,3.40
2019-01-08T14:26:05.904Z,2.53
2019-01-08T14:28:53.343Z,3.37
2019-01-08T14:31:21.746Z,4.00
2019-01-08T14:33:49.862Z,4.47
2019-01-08T14:36:17.967Z,5.50
2019-01-08T14:38:46.121Z,2.83
2019-01-08T14:41:14.217Z,2.83
2019-01-08T14:43:42.315Z,4.00
2019-01-08T14:46:10.558Z,3.20
2019-01-08T14:48:38.686Z,3.30
2019-01-08T14:51:06.790Z,4.13
2019-01-08T14:53:35.226Z,3.20
2019-01-08T14:56:03.335Z,3.07
2019-01-08T14:58:31.485Z,5.17
2019-01-08T15:01:19.001Z,5.67
2019-01-08T15:03:47.112Z,4.37
2019-01-08T15:06:15.226Z,4.70
2019-01-08T15:08:43.382Z,4.77
2019-01-08T15:11:11.542Z,2.47
2019-01-08T15:13:39.634Z,1.93
2019-01-08T15:16:08.090Z,4.97
2019-01-08T15:18:36.206Z,4.60
2019-01-08T15:21:04.308Z,2.33
2019-01-08T15:23:32.772Z,4.13
2019-01-08T15:26:00.883Z,3.33
2019-01-08T15:28:29.017Z,2.97
2019-01-08T15:30:57.210Z,3.47
2019-01-08T15:33:25.405Z,2.17
2019-01-08T15:35:53.549Z,2.73
2019-01-08T15:38:22.022Z,2.37
2019-01-08T15:40:50.153Z,1.90
2019-01-08T15:43:18.282Z,3.03
2019-01-08T15:45:46.526Z,2.93
2019-01-08T15:48:14.655Z,2.10
2019-01-08T15:50:42.830Z,1.83
2019-01-08T15:53:11.019Z,1.80
2019-01-08T15:55:39.223Z,1.70
2019-01-08T15:58:07.389Z,1.90
2019-01-08T16:00:35.537Z,2.13
2019-01-08T16:03:07.499Z,1.80
2019-01-08T16:05:33.547Z,2.27
2019-01-08T16:08:01.743Z,1.97
2019-01-08T16:10:30.153Z,2.70
2019-01-08T16:12:58.286Z,2.00
2019-01-08T16:15:26.747Z,1.93
2019-01-08T16:17:54.941Z,1.90
2019-01-08T16:20:23.095Z,1.77
2019-01-08T16:22:51.534Z,1.83
2019-01-08T16:25:39.011Z,1.83
2019-01-08T16:28:07.418Z,1.67
2019-01-08T16:30:54.906Z,3.43
2019-01-08T16:36:25.298Z,1.60
2019-01-08T16:38:53.429Z,3.87
2019-01-08T16:41:21.568Z,1.57
2019-01-08T16:44:09.160Z,1.73
2019-01-08T16:46:37.298Z,2.20
2019-01-08T16:49:05.425Z,1.70
2019-01-08T16:51:52.927Z,2.13
2019-01-08T16:54:21.086Z,1.77
2019-01-08T16:56:49.219Z,1.73
2019-01-08T16:59:17.559Z,1.53
2019-01-08T17:01:45.768Z,1.70
2019-01-08T17:04:13.982Z,1.27
2019-01-08T17:06:42.222Z,2.37
2019-01-08T17:09:10.379Z,2.47
2019-01-08T17:11:38.505Z,1.67
2019-01-08T17:14:06.662Z,1.90
2019-01-08T17:16:34.829Z,2.13
2019-01-08T17:19:02.938Z,1.60
2019-01-08T17:21:31.129Z,1.50
2019-01-08T17:23:59.243Z,1.67
2019-01-08T17:26:27.371Z,1.80
2019-01-08T17:28:55.526Z,2.30
2019-01-08T17:31:23.663Z,1.80
2019-01-08T17:33:51.817Z,1.67
2019-01-08T17:36:20.016Z,1.93
2019-01-08T17:38:48.135Z,1.60
2019-01-08T17:41:16.274Z,2.33
2019-01-08T17:43:44.552Z,2.70
2019-01-08T17:46:12.689Z,2.03
2019-01-08T17:48:40.838Z,3.30
2019-01-08T17:51:09.338Z,2.60
2019-01-08T17:53:37.494Z,3.97
2019-01-08T17:56:05.634Z,2.67
2019-01-08T17:58:34.772Z,1.80
2019-01-08T18:01:10.427Z,1.80
2019-01-08T18:03:42.740Z,2.30
2019-01-08T18:06:08.705Z,1.70
2019-01-08T18:08:36.873Z,3.03
2019-01-08T18:11:05.155Z,2.07
2019-01-08T18:13:33.287Z,3.90
2019-01-08T18:16:01.469Z,1.90
2019-01-08T18:18:30.187Z,2.17
2019-01-08T18:20:58.439Z,1.37
2019-01-08T18:23:26.589Z,2.30
2019-01-08T18:25:54.922Z,1.60
2019-01-08T18:28:23.099Z,2.53
2019-01-08T18:30:51.571Z,2.50
2019-01-08T18:33:19.826Z,1.93
2019-01-08T18:35:47.956Z,2.03
2019-01-08T18:38:16.090Z,1.87
2019-01-08T18:40:44.440Z,1.93
2019-01-08T18:43:14.370Z,2.43
2019-01-08T18:45:42.494Z,1.87
2019-01-08T18:48:10.927Z,1.87
2019-01-08T18:50:39.050Z,2.87
2019-01-08T18:53:07.189Z,2.67
2019-01-08T18:55:35.640Z,2.50
2019-01-08T18:58:03.763Z,2.40
2019-01-08T19:00:31.858Z,2.77
2019-01-08T19:03:00.062Z,1.97
2019-01-08T19:05:28.281Z,2.80
2019-01-08T19:07:56.459Z,1.77
2019-01-08T19:12:57.830Z,2.23
2019-01-08T19:17:49.605Z,2.07
2019-01-08T19:20:17.810Z,2.83
2019-01-08T19:22:45.958Z,2.47
2019-01-08T19:25:14.223Z,3.23
2019-01-08T19:27:42.350Z,3.27
2019-01-08T19:30:12.034Z,4.17
2019-01-08T19:32:40.440Z,5.20
2019-01-08T19:35:08.742Z,2.03
2019-01-08T19:37:36.941Z,2.50
2019-01-08T19:40:06.246Z,3.40
2019-01-08T19:42:34.406Z,3.77
2019-01-08T19:45:02.650Z,3.10
2019-01-08T19:47:30.922Z,3.13
2019-01-08T19:49:59.260Z,2.77
2019-01-08T19:52:29.051Z,3.07
2019-01-08T19:54:57.381Z,2.43
2019-01-08T19:57:25.569Z,4.53
2019-01-08T19:59:53.730Z,3.83
2019-01-08T20:02:41.449Z,3.90
2019-01-08T20:05:09.769Z,3.87
2019-01-08T20:07:37.865Z,3.90
2019-01-08T20:10:06.618Z,2.63
2019-01-08T20:12:34.802Z,2.87
2019-01-08T20:15:02.933Z,2.10
2019-01-08T20:17:31.139Z,4.33
2019-01-08T20:19:59.273Z,4.50
2019-01-08T20:22:27.423Z,4.20
2019-01-08T20:24:55.701Z,3.93
2019-01-08T20:27:23.829Z,3.53
2019-01-08T20:29:51.961Z,4.50
2019-01-08T20:32:20.259Z,4.40
2019-01-08T20:34:48.711Z,3.67
2019-01-08T20:37:16.918Z,5.33
2019-01-08T20:39:45.226Z,5.23
2019-01-08T20:42:13.358Z,5.03
2019-01-08T20:44:41.489Z,5.93
2019-01-08T20:47:09.915Z,5.23
2019-01-08T20:49:38.055Z,2.80
2019-01-08T20:52:06.191Z,4.00
2019-01-08T20:54:34.617Z,3.43
2019-01-08T20:57:08.917Z,2.37
2019-01-08T20:59:32.633Z,4.73
2019-01-08T21:02:00.792Z,3.40
2019-01-08T21:04:35.415Z,4.63
2019-01-08T21:06:59.153Z,3.27
2019-01-08T21:09:27.917Z,3.57
2019-01-08T21:11:56.057Z,2.57
2019-01-08T21:14:24.189Z,1.70
2019-01-08T21:16:52.454Z,1.63
2019-01-08T21:19:20.592Z,3.83
2019-01-08T21:21:48.941Z,1.47
2019-01-08T21:24:17.267Z,1.60
2019-01-08T21:26:45.433Z,1.43
2019-01-08T21:29:13.572Z,1.50
2019-01-08T21:31:41.829Z,2.10
2019-01-08T21:34:09.962Z,3.33
2019-01-08T21:36:38.097Z,3.20
2019-01-08T21:39:06.502Z,3.53
2019-01-08T21:41:34.625Z,2.00
2019-01-08T21:44:02.754Z,1.97
2019-01-08T21:46:30.905Z,2.17
2019-01-08T21:48:59.033Z,1.90
2019-01-08T21:51:27.168Z,2.83
2019-01-08T21:59:55.258Z,1.83
2019-01-08T22:02:23.388Z,2.17
2019-01-08T22:04:53.297Z,1.60
2019-01-08T22:07:21.578Z,2.67
2019-01-08T22:10:09.063Z,2.57
2019-01-08T22:12:37.295Z,2.27
2019-01-08T22:15:06.103Z,1.93
2019-01-08T22:17:34.238Z,1.97
2019-01-08T22:20:02.859Z,2.13
2019-01-08T22:22:30.969Z,2.37
2019-01-08T22:24:59.168Z,2.73
2019-01-08T22:29:55.780Z,1.73
2019-01-08T22:32:23.913Z,1.70
2019-01-08T22:34:52.042Z,2.03
2019-01-08T22:37:20.343Z,3.30
2019-01-08T22:39:48.560Z,1.73
2019-01-08T22:42:16.754Z,2.30
2019-01-08T22:44:44.881Z,2.67
2019-01-08T22:47:12.994Z,3.53
2019-01-08T22:49:41.152Z,3.33
2019-01-08T22:52:09.441Z,2.20
2019-01-08T22:54:37.582Z,1.67
2019-01-08T22:57:06.191Z,2.40
2019-01-08T22:59:34.494Z,1.70
2019-01-08T23:02:02.663Z,1.60
2019-01-08T23:04:30.789Z,1.53
2019-01-08T23:06:58.950Z,1.77
2019-01-08T23:09:27.527Z,2.73
2019-01-08T23:11:55.663Z,1.30
2019-01-08T23:14:23.970Z,2.33
2019-01-08T23:16:52.094Z,1.73
2019-01-08T23:19:20.230Z,1.57
2019-01-08T23:21:48.421Z,1.43
2019-01-08T23:24:16.562Z,2.10
2019-01-08T23:26:44.705Z,3.17
2019-01-08T23:29:13.001Z,2.80
2019-01-08T23:31:41.208Z,2.07
2019-01-08T23:34:09.329Z,2.27
2019-01-08T23:36:37.616Z,2.93
2019-01-08T23:39:05.918Z,2.80
2019-01-08T23:41:34.052Z,3.27
2019-01-08T23:44:02.353Z,1.90
2019-01-08T23:46:30.442Z,2.77
2019-01-08T23:48:58.531Z,2.20
2019-01-08T23:51:26.850Z,2.27
2019-01-08T23:53:55.645Z,3.23
2019-01-08T23:56:23.914Z,2.07
2019-01-08T23:58:52.075Z,2.37
